Time;durP1;ratioP1;P1;durP2;ratioP2;P2;SDS_P1;SDS_P2;PMS_P1;PMS_P2;Temp;Humidity;BMP_temperature;BMP_pressure;BME280_temperature;BME280_humidity;BME280_pressure;Samples;Min_cycle;Max_cycle;Signal;HPM_P1;HPM_P2
2020/12/16 00:01:32;;;;;;;20.85;8.25;;;;;;;;;;5012429;28;20053;-53
2020/12/16 00:03:58;;;;;;;19.45;8.50;;;;;;;;;;5017807;28;20050;-58
2020/12/16 00:06:25;;;;;;;19.95;7.95;;;;;;;;;;5011253;28;20054;-58
2020/12/16 00:08:54;;;;;;;18.90;7.00;;;;;;;;;;5015366;28;20042;-57
2020/12/16 00:11:20;;;;;;;29.20;9.07;;;;;;;;;;5007566;28;20038;-55
2020/12/16 00:13:46;;;;;;;25.77;7.80;;;;;;;;;;5017351;28;20038;-55
2020/12/16 00:16:12;;;;;;;21.27;7.93;;;;;;;;;;5014373;28;20343;-57
2020/12/16 00:18:41;;;;;;;22.88;9.02;;;;;;;;;;5017621;28;20048;-57
2020/12/16 00:21:07;;;;;;;18.45;7.68;;;;;;;;;;5020463;28;20033;-57
2020/12/16 00:23:34;;;;;;;21.20;8.98;;;;;;;;;;5012558;28;20049;-58
2020/12/16 00:26:03;;;;;;;19.02;8.35;;;;;;;;;;5012359;28;20108;-55
2020/12/16 00:28:31;;;;;;;25.27;7.65;;;;;;;;;;5006924;28;20066;-55
2020/12/16 00:30:57;;;;;;;17.58;8.85;;;;;;;;;;5013939;28;20030;-56
2020/12/16 00:33:23;;;;;;;19.85;8.77;;;;;;;;;;5007443;28;20147;-55
2020/12/16 00:35:49;;;;;;;20.85;8.93;;;;;;;;;;5006924;28;20053;-57
2020/12/16 00:38:15;;;;;;;23.25;7.22;;;;;;;;;;5011234;28;20048;-52
2020/12/16 00:40:42;;;;;;;20.67;8.55;;;;;;;;;;5005914;28;20046;-57
2020/12/16 00:43:09;;;;;;;20.73;8.05;;;;;;;;;;5008111;28;20099;-55
2020/12/16 00:45:35;;;;;;;20.95;9.45;;;;;;;;;;5011097;28;20037;-56
2020/12/16 00:48:06;;;;;;;19.63;8.25;;;;;;;;;;5011666;28;20030;-51
2020/12/16 00:50:32;;;;;;;19.95;8.55;;;;;;;;;;5015778;28;20050;-60
2020/12/16 00:52:58;;;;;;;19.00;7.88;;;;;;;;;;5008702;28;20377;-58
2020/12/16 00:55:24;;;;;;;16.33;7.93;;;;;;;;;;5007685;28;20039;-58
2020/12/16 00:57:55;;;;;;;18.58;7.70;;;;;;;;;;5001601;28;20043;-57
2020/12/16 01:00:21;;;;;;;17.27;7.68;;;;;;;;;;5004801;28;20050;-57
2020/12/16 01:02:48;;;;;;;17.08;8.07;;;;;;;;;;5005687;28;20042;-56
2020/12/16 01:05:14;;;;;;;26.42;8.13;;;;;;;;;;5000666;28;20046;-58
2020/12/16 01:07:44;;;;;;;15.48;7.88;;;;;;;;;;5003138;28;20038;-60
2020/12/16 01:10:11;;;;;;;25.00;8.10;;;;;;;;;;5019054;28;20047;-58
2020/12/16 01:12:38;;;;;;;21.58;8.32;;;;;;;;;;5026430;28;20065;-56
2020/12/16 01:15:07;;;;;;;23.17;8.10;;;;;;;;;;5022446;28;20049;-59
2020/12/16 01:17:37;;;;;;;22.65;8.48;;;;;;;;;;5024601;28;20026;-59
2020/12/16 01:20:04;;;;;;;15.85;7.82;;;;;;;;;;5021371;28;20034;-58
2020/12/16 01:22:30;;;;;;;22.33;7.70;;;;;;;;;;5024743;28;20052;-61
2020/12/16 01:24:56;;;;;;;18.83;8.85;;;;;;;;;;5012730;28;20070;-58
2020/12/16 01:27:22;;;;;;;22.88;7.68;;;;;;;;;;5006254;28;20046;-58
2020/12/16 01:29:48;;;;;;;21.02;8.30;;;;;;;;;;5001146;28;20073;-58
2020/12/16 01:32:15;;;;;;;23.73;7.63;;;;;;;;;;5005774;28;20046;-58
2020/12/16 01:34:41;;;;;;;17.10;7.85;;;;;;;;;;5008124;28;20077;-53
2020/12/16 01:37:16;;;;;;;17.40;8.32;;;;;;;;;;4994495;28;20094;-60
2020/12/16 01:39:42;;;;;;;18.27;8.13;;;;;;;;;;5018277;28;20042;-57
2020/12/16 01:42:08;;;;;;;17.02;8.55;;;;;;;;;;5003441;28;20050;-58
2020/12/16 01:44:34;;;;;;;20.15;9.45;;;;;;;;;;5002748;28;20572;-59
2020/12/16 01:47:01;;;;;;;19.52;8.68;;;;;;;;;;5004849;28;20042;-56
2020/12/16 01:49:28;;;;;;;22.60;7.95;;;;;;;;;;5005275;28;20057;-58
2020/12/16 01:51:55;;;;;;;17.05;7.88;;;;;;;;;;5017863;28;20095;-59
2020/12/16 01:54:24;;;;;;;18.77;8.38;;;;;;;;;;5024408;28;20046;-58
2020/12/16 01:56:50;;;;;;;;;;;;;;;;;;5020880;28;20034;-60
2020/12/16 01:59:16;;;;;;;20.90;6.80;;;;;;;;;;5023464;28;19925;-59
2020/12/16 02:01:45;;;;;;;16.88;6.63;;;;;;;;;;5008744;28;20078;-60
2020/12/16 02:04:12;;;;;;;16.65;7.43;;;;;;;;;;5005003;28;20058;-60
2020/12/16 02:06:40;;;;;;;17.33;7.30;;;;;;;;;;5001215;28;20038;-58
2020/12/16 02:09:19;;;;;;;19.23;7.93;;;;;;;;;;5007027;28;20092;-58
2020/12/16 02:11:45;;;;;;;18.55;8.63;;;;;;;;;;5001389;28;20095;-58
2020/12/16 02:14:11;;;;;;;21.15;7.60;;;;;;;;;;5005626;28;20038;-58
2020/12/16 02:16:38;;;;;;;21.80;8.13;;;;;;;;;;5000653;28;20034;-56
2020/12/16 02:19:06;;;;;;;19.40;7.97;;;;;;;;;;5006302;28;20042;-57
2020/12/16 02:21:32;;;;;;;21.27;8.75;;;;;;;;;;4999281;28;20147;-58
2020/12/16 02:24:03;;;;;;;22.48;7.75;;;;;;;;;;5015094;28;20038;-57
2020/12/16 02:26:30;;;;;;;23.73;8.75;;;;;;;;;;5017373;28;20045;-57
2020/12/16 02:28:58;;;;;;;17.00;7.38;;;;;;;;;;5004084;28;20046;-58
2020/12/16 02:31:24;;;;;;;18.45;8.05;;;;;;;;;;5001594;28;20038;-58
2020/12/16 02:33:50;;;;;;;21.13;8.63;;;;;;;;;;5010269;28;20634;-58
2020/12/16 02:36:16;;;;;;;19.70;7.85;;;;;;;;;;5023639;28;20038;-56
2020/12/16 02:38:48;;;;;;;22.55;8.15;;;;;;;;;;5002730;28;20038;-54
2020/12/16 02:41:15;;;;;;;20.80;8.35;;;;;;;;;;5002358;28;20054;-56
2020/12/16 02:43:45;;;;;;;18.35;7.38;;;;;;;;;;4999128;28;20046;-56
2020/12/16 02:46:11;;;;;;;22.02;8.20;;;;;;;;;;5001943;28;20046;-58
2020/12/16 02:48:37;;;;;;;24.00;9.50;;;;;;;;;;5000034;28;20052;-56
2020/12/16 02:51:03;;;;;;;17.30;7.57;;;;;;;;;;5006738;28;20030;-58
2020/12/16 02:53:29;;;;;;;27.42;8.55;;;;;;;;;;5003581;28;20112;-61
2020/12/16 02:55:55;;;;;;;18.33;8.48;;;;;;;;;;5007751;28;20140;-62
2020/12/16 02:58:24;;;;;;;22.27;8.52;;;;;;;;;;5011430;28;20069;-59
2020/12/16 03:00:51;;;;;;;22.13;8.00;;;;;;;;;;5020768;28;20123;-59
2020/12/16 03:03:17;;;;;;;22.38;9.18;;;;;;;;;;5021810;28;20052;-61
2020/12/16 03:05:43;;;;;;;16.67;7.07;;;;;;;;;;5023931;28;20037;-60
2020/12/16 03:08:12;;;;;;;17.60;8.13;;;;;;;;;;5021325;28;20053;-58
2020/12/16 03:10:38;;;;;;;21.45;9.18;;;;;;;;;;5013404;28;20038;-61
2020/12/16 03:13:04;;;;;;;21.98;8.32;;;;;;;;;;5003067;28;20049;-53
2020/12/16 03:15:30;;;;;;;17.70;7.65;;;;;;;;;;5008128;28;20046;-59
2020/12/16 03:17:59;;;;;;;18.40;7.05;;;;;;;;;;5006881;28;20042;-59
2020/12/16 03:20:25;;;;;;;11.82;4.47;;;;;;;;;;5002020;28;20100;-59
2020/12/16 03:22:51;;;;;;;16.85;7.57;;;;;;;;;;5004751;28;20613;-61
2020/12/16 03:25:17;;;;;;;16.05;7.07;;;;;;;;;;5000731;28;20077;-59
2020/12/16 03:27:46;;;;;;;20.52;7.60;;;;;;;;;;5006005;28;20128;-56
2020/12/16 03:30:12;;;;;;;17.17;7.38;;;;;;;;;;5017407;28;20131;-57
2020/12/16 03:32:38;;;;;;;16.40;6.85;;;;;;;;;;5025344;28;20029;-59
2020/12/16 03:35:05;;;;;;;19.50;9.07;;;;;;;;;;5013344;28;20046;-58
2020/12/16 03:37:32;;;;;;;17.25;7.28;;;;;;;;;;5006116;28;20115;-58
2020/12/16 03:39:58;;;;;;;15.68;7.65;;;;;;;;;;5004621;28;20022;-58
2020/12/16 03:42:24;;;;;;;18.73;8.43;;;;;;;;;;5016872;28;20078;-56
2020/12/16 03:44:50;;;;;;;19.38;7.47;;;;;;;;;;5016801;28;20053;-59
2020/12/16 03:47:16;;;;;;;16.13;7.28;;;;;;;;;;5007103;28;20042;-61
2020/12/16 03:49:42;;;;;;;19.58;7.68;;;;;;;;;;5004385;28;20415;-57
2020/12/16 03:52:09;;;;;;;17.30;7.40;;;;;;;;;;5025368;28;20046;-57
2020/12/16 03:54:35;;;;;;;19.95;8.82;;;;;;;;;;5024420;28;20038;-59
2020/12/16 03:57:01;;;;;;;16.05;7.70;;;;;;;;;;5024572;28;20085;-57
2020/12/16 03:59:27;;;;;;;15.70;7.60;;;;;;;;;;5026947;28;20034;-57
2020/12/16 04:01:53;;;;;;;18.40;8.30;;;;;;;;;;5014340;28;20046;-58
2020/12/16 04:04:19;;;;;;;16.55;7.90;;;;;;;;;;5005133;28;20042;-58
2020/12/16 04:06:45;;;;;;;14.65;6.93;;;;;;;;;;5018800;28;20103;-58
2020/12/16 04:09:15;;;;;;;15.73;6.93;;;;;;;;;;5026254;28;20033;-57
2020/12/16 04:11:41;;;;;;;16.65;7.07;;;;;;;;;;5020481;28;20041;-56
2020/12/16 04:14:07;;;;;;;16.88;7.82;;;;;;;;;;5025167;28;20038;-56
2020/12/16 04:16:33;;;;;;;17.48;8.00;;;;;;;;;;5021411;28;20088;-57
2020/12/16 04:19:09;;;;;;;16.52;7.05;;;;;;;;;;5025387;28;20042;-56
2020/12/16 04:21:35;;;;;;;16.15;7.00;;;;;;;;;;5019778;28;20044;-57
2020/12/16 04:24:01;;;;;;;17.88;7.28;;;;;;;;;;5025983;28;20042;-58
2020/12/16 04:26:28;;;;;;;17.85;7.85;;;;;;;;;;5020131;28;20227;-57
2020/12/16 04:29:04;;;;;;;14.98;7.00;;;;;;;;;;5024451;28;20128;-55
2020/12/16 04:31:30;;;;;;;12.85;5.25;;;;;;;;;;5017078;28;20037;-57
2020/12/16 04:33:56;;;;;;;15.73;7.70;;;;;;;;;;5025409;28;20033;-56
2020/12/16 04:36:22;;;;;;;15.15;6.90;;;;;;;;;;5022003;28;20044;-58
2020/12/16 04:38:50;;;;;;;15.60;6.60;;;;;;;;;;5023981;28;20046;-57
2020/12/16 04:41:16;;;;;;;18.42;7.00;;;;;;;;;;5021369;28;20035;-55
2020/12/16 04:43:44;;;;;;;14.13;6.65;;;;;;;;;;5003903;28;20054;-57
2020/12/16 04:46:10;;;;;;;19.13;7.22;;;;;;;;;;5002786;28;20078;-56
2020/12/16 04:48:37;;;;;;;16.02;7.60;;;;;;;;;;5017648;28;20066;-58
2020/12/16 04:51:03;;;;;;;14.18;6.80;;;;;;;;;;5023381;28;20057;-59
2020/12/16 04:53:32;;;;;;;14.75;6.55;;;;;;;;;;5005747;28;20042;-57
2020/12/16 04:55:58;;;;;;;15.85;6.82;;;;;;;;;;5006328;28;20138;-59
2020/12/16 04:58:32;;;;;;;16.00;7.45;;;;;;;;;;5002369;28;20411;-61
2020/12/16 05:00:59;;;;;;;18.50;6.57;;;;;;;;;;5009687;28;20037;-58
2020/12/16 05:03:26;;;;;;;15.75;7.45;;;;;;;;;;5011742;28;20053;-58
2020/12/16 05:05:52;;;;;;;15.43;6.95;;;;;;;;;;5014337;28;20191;-62
2020/12/16 05:08:20;;;;;;;18.33;7.72;;;;;;;;;;5013864;28;20078;-58
2020/12/16 05:10:48;;;;;;;20.27;7.22;;;;;;;;;;5004983;28;20034;-55
2020/12/16 05:13:15;;;;;;;19.15;8.02;;;;;;;;;;5007115;28;20041;-58
2020/12/16 05:15:43;;;;;;;16.92;7.68;;;;;;;;;;5026509;28;20041;-58
2020/12/16 05:18:20;;;;;;;20.70;7.50;;;;;;;;;;5016963;28;20176;-56
2020/12/16 05:20:48;;;;;;;15.47;7.03;;;;;;;;;;5006219;28;20034;-59
2020/12/16 05:23:15;;;;;;;17.00;7.22;;;;;;;;;;5001899;28;20038;-57
2020/12/16 05:25:56;;;;;;;18.30;7.53;;;;;;;;;;5004881;28;20030;-58
2020/12/16 05:28:28;;;;;;;16.65;7.53;;;;;;;;;;5002653;28;20026;-60
2020/12/16 05:30:54;;;;;;;13.43;6.88;;;;;;;;;;5024466;28;20034;-58
2020/12/16 05:33:22;;;;;;;15.38;6.68;;;;;;;;;;5024191;28;20034;-56
2020/12/16 05:35:50;;;;;;;13.90;6.80;;;;;;;;;;5002620;28;20030;-58
2020/12/16 05:38:18;;;;;;;15.40;6.28;;;;;;;;;;5004928;28;20046;-61
2020/12/16 05:40:44;;;;;;;18.80;7.80;;;;;;;;;;5001861;28;20048;-59
2020/12/16 05:43:20;;;;;;;14.43;6.53;;;;;;;;;;5004507;28;20042;-60
2020/12/16 05:45:46;;;;;;;16.48;6.72;;;;;;;;;;5001048;28;20038;-57
2020/12/16 05:48:13;;;;;;;14.70;6.75;;;;;;;;;;5005874;28;20038;-58
2020/12/16 05:50:40;;;;;;;14.13;6.30;;;;;;;;;;5001491;28;20034;-58
2020/12/16 05:53:08;;;;;;;16.95;7.57;;;;;;;;;;5006295;28;20045;-58
2020/12/16 05:55:34;;;;;;;16.52;7.28;;;;;;;;;;5002839;28;20089;-59
2020/12/16 05:58:10;;;;;;;14.43;7.18;;;;;;;;;;5003186;28;20039;-60
2020/12/16 06:00:42;;;;;;;19.17;8.10;;;;;;;;;;5009691;28;20044;-60
2020/12/16 06:03:10;;;;;;;14.13;6.93;;;;;;;;;;5004330;28;20066;-58
2020/12/16 06:05:36;;;;;;;15.13;7.53;;;;;;;;;;5000939;28;20424;-59
2020/12/16 06:08:06;;;;;;;16.23;6.97;;;;;;;;;;5004024;28;20038;-57
2020/12/16 06:10:34;;;;;;;17.77;8.57;;;;;;;;;;5008401;28;20026;-56
2020/12/16 06:13:04;;;;;;;16.92;6.90;;;;;;;;;;5023892;28;20042;-61
2020/12/16 06:15:32;;;;;;;15.27;7.68;;;;;;;;;;5021741;28;20045;-60
2020/12/16 06:18:02;;;;;;;15.63;7.15;;;;;;;;;;5025583;28;20054;-60
2020/12/16 06:20:35;;;;;;;16.45;7.72;;;;;;;;;;5020461;28;20046;-58
2020/12/16 06:23:03;;;;;;;15.02;6.45;;;;;;;;;;5026630;28;20033;-60
2020/12/16 06:25:33;;;;;;;12.95;6.60;;;;;;;;;;5020325;28;20054;-58
2020/12/16 06:28:02;;;;;;;14.15;6.55;;;;;;;;;;5007877;28;20038;-59
2020/12/16 06:30:30;;;;;;;15.60;7.28;;;;;;;;;;5005147;28;20034;-57
2020/12/16 06:33:02;;;;;;;14.43;6.95;;;;;;;;;;5020400;28;20030;-60
2020/12/16 06:35:29;;;;;;;14.20;6.40;;;;;;;;;;5022468;28;20105;-57
2020/12/16 06:38:10;;;;;;;15.52;7.45;;;;;;;;;;5021266;28;20052;-56
2020/12/16 06:40:43;;;;;;;12.55;6.28;;;;;;;;;;5026060;28;20044;-60
2020/12/16 06:43:28;;;;;;;13.57;6.63;;;;;;;;;;5020939;28;20044;-56
2020/12/16 06:45:54;;;;;;;13.77;6.05;;;;;;;;;;5021216;28;20026;-58
2020/12/16 06:48:37;;;;;;;13.65;6.10;;;;;;;;;;5019792;28;20034;-58
2020/12/16 06:51:14;;;;;;;13.63;5.88;;;;;;;;;;5022807;28;20063;-56
2020/12/16 06:53:40;;;;;;;12.02;6.13;;;;;;;;;;5001461;28;20030;-58
2020/12/16 06:56:07;;;;;;;12.27;5.88;;;;;;;;;;5001447;28;20034;-54
2020/12/16 06:58:39;;;;;;;13.48;5.68;;;;;;;;;;5000964;28;20039;-59
2020/12/16 07:01:10;;;;;;;12.60;6.43;;;;;;;;;;5004292;28;20073;-59
2020/12/16 07:03:36;;;;;;;14.05;5.85;;;;;;;;;;5019746;28;20049;-58
2020/12/16 07:06:02;;;;;;;13.77;6.20;;;;;;;;;;5022507;28;20049;-56
2020/12/16 07:08:29;;;;;;;11.15;5.53;;;;;;;;;;5007644;28;20030;-58
2020/12/16 07:10:56;;;;;;;13.35;5.80;;;;;;;;;;5002795;28;20046;-60
2020/12/16 07:13:29;;;;;;;13.70;6.00;;;;;;;;;;5009359;28;20037;-55
2020/12/16 07:15:57;;;;;;;11.10;4.90;;;;;;;;;;5023986;28;20037;-58
2020/12/16 07:18:43;;;;;;;11.40;5.00;;;;;;;;;;5019556;28;20049;-59
2020/12/16 07:21:20;;;;;;;10.30;5.00;;;;;;;;;;5023639;28;20109;-56
2020/12/16 07:23:47;;;;;;;14.20;6.47;;;;;;;;;;5011850;28;20131;-59
2020/12/16 07:26:18;;;;;;;13.38;5.45;;;;;;;;;;5022059;28;20042;-58
2020/12/16 07:28:46;;;;;;;12.38;5.65;;;;;;;;;;5009458;28;20112;-60
2020/12/16 07:31:12;;;;;;;10.40;4.75;;;;;;;;;;5002922;28;20034;-53
2020/12/16 07:33:38;;;;;;;11.77;4.88;;;;;;;;;;5002448;28;20049;-59
2020/12/16 07:36:05;;;;;;;13.70;4.78;;;;;;;;;;5006734;28;20054;-58
2020/12/16 07:38:31;;;;;;;11.20;4.90;;;;;;;;;;5003254;28;20053;-58
2020/12/16 07:40:57;;;;;;;9.48;4.35;;;;;;;;;;5005929;28;20042;-57
2020/12/16 07:43:24;;;;;;;11.50;4.40;;;;;;;;;;5004951;28;20038;-58
2020/12/16 07:46:01;;;;;;;9.30;4.78;;;;;;;;;;5002718;28;20044;-58
2020/12/16 07:48:28;;;;;;;11.52;4.35;;;;;;;;;;5006562;28;20077;-60
2020/12/16 07:50:58;;;;;;;11.63;4.78;;;;;;;;;;5021797;28;20085;-59
2020/12/16 07:53:24;;;;;;;11.63;4.55;;;;;;;;;;5025644;28;20041;-57
2020/12/16 07:55:56;;;;;;;9.57;4.47;;;;;;;;;;5006791;28;20038;-59
2020/12/16 07:58:30;;;;;;;11.20;4.55;;;;;;;;;;5006555;28;20038;-60
2020/12/16 08:01:06;;;;;;;11.38;4.60;;;;;;;;;;4990889;28;20030;-58
2020/12/16 08:03:33;;;;;;;12.75;3.92;;;;;;;;;;5010985;28;20026;-57
2020/12/16 08:06:02;;;;;;;11.13;4.28;;;;;;;;;;5001833;28;20041;-57
2020/12/16 08:08:30;;;;;;;10.82;4.47;;;;;;;;;;5015102;28;20022;-60
2020/12/16 08:10:56;;;;;;;8.65;4.10;;;;;;;;;;5011136;28;20058;-58
2020/12/16 08:13:23;;;;;;;10.82;4.38;;;;;;;;;;5013396;28;20042;-61
2020/12/16 08:15:49;;;;;;;8.57;3.88;;;;;;;;;;5012098;28;20071;-58
2020/12/16 08:18:18;;;;;;;9.88;3.97;;;;;;;;;;5025294;28;20034;-60
2020/12/16 08:20:44;;;;;;;;;;;;;;;;;;5025854;28;20074;-60
2020/12/16 08:23:13;;;;;;;9.05;3.30;;;;;;;;;;5004476;28;19954;-54
2020/12/16 08:25:40;;;;;;;9.63;3.83;;;;;;;;;;5005310;28;20041;-61
2020/12/16 08:28:06;;;;;;;9.90;3.97;;;;;;;;;;5023458;28;20034;-58
2020/12/16 08:30:51;;;;;;;10.48;3.97;;;;;;;;;;5022335;28;20033;-56
2020/12/16 08:33:18;;;;;;;10.65;4.38;;;;;;;;;;5025265;28;20033;-60
2020/12/16 08:35:50;;;;;;;8.60;3.70;;;;;;;;;;5020635;28;20098;-60
2020/12/16 08:38:28;;;;;;;12.45;4.90;;;;;;;;;;5012931;28;20057;-58
2020/12/16 08:40:55;;;;;;;9.10;3.67;;;;;;;;;;5009819;28;20089;-60
2020/12/16 08:43:24;;;;;;;9.65;4.38;;;;;;;;;;5005331;28;20052;-58
2020/12/16 08:45:58;;;;;;;13.38;5.10;;;;;;;;;;5022222;28;20085;-58
2020/12/16 08:48:28;;;;;;;9.45;4.20;;;;;;;;;;5004764;28;20041;-58
2020/12/16 08:51:01;;;;;;;11.00;4.15;;;;;;;;;;4987555;28;20042;-56
2020/12/16 08:53:27;;;;;;;13.23;4.07;;;;;;;;;;5008006;28;20127;-57
2020/12/16 08:55:56;;;;;;;12.35;4.13;;;;;;;;;;4994481;28;20107;-59
2020/12/16 08:58:28;;;;;;;9.27;4.38;;;;;;;;;;5000374;28;20030;-59
2020/12/16 09:00:57;;;;;;;9.50;4.25;;;;;;;;;;4995165;28;20038;-59
2020/12/16 09:03:23;;;;;;;11.68;3.92;;;;;;;;;;5003735;28;20042;-57
2020/12/16 09:05:50;;;;;;;9.88;4.38;;;;;;;;;;5003520;28;20038;-59
2020/12/16 09:08:35;;;;;;;7.80;3.92;;;;;;;;;;4994020;28;20042;-59
2020/12/16 09:11:04;;;;;;;9.90;4.57;;;;;;;;;;5004991;28;20785;-58
2020/12/16 09:13:30;;;;;;;10.48;4.22;;;;;;;;;;4995632;28;20034;-60
2020/12/16 09:15:58;;;;;;;10.02;4.40;;;;;;;;;;5025102;28;20034;-59
2020/12/16 09:18:28;;;;;;;8.27;4.22;;;;;;;;;;4996701;28;20472;-60
2020/12/16 09:20:56;;;;;;;10.63;4.50;;;;;;;;;;5013630;28;20040;-58
2020/12/16 09:23:23;;;;;;;8.65;3.88;;;;;;;;;;5012889;28;20066;-58
2020/12/16 09:25:51;;;;;;;10.70;3.67;;;;;;;;;;5003481;28;20077;-56
2020/12/16 09:28:35;;;;;;;10.77;4.53;;;;;;;;;;5006056;28;20037;-58
2020/12/16 09:31:15;;;;;;;8.20;3.97;;;;;;;;;;5012514;28;20038;-52
2020/12/16 09:33:41;;;;;;;9.52;4.80;;;;;;;;;;5020711;28;20074;-56
2020/12/16 09:36:14;;;;;;;12.77;5.55;;;;;;;;;;5025098;28;20029;-61
2020/12/16 09:38:40;;;;;;;9.18;3.88;;;;;;;;;;5015908;28;20089;-58
2020/12/16 09:41:08;;;;;;;13.15;4.13;;;;;;;;;;5002619;28;20026;-59
2020/12/16 09:43:38;;;;;;;10.20;3.90;;;;;;;;;;5005149;28;20034;-60
2020/12/16 09:46:14;;;;;;;8.95;3.75;;;;;;;;;;5014429;28;20283;-61
2020/12/16 09:48:41;;;;;;;10.80;4.00;;;;;;;;;;5022310;28;20033;-59
2020/12/16 09:51:15;;;;;;;8.60;3.60;;;;;;;;;;5023382;28;20050;-60
2020/12/16 09:53:41;;;;;;;12.90;4.00;;;;;;;;;;5021047;28;20048;-58
2020/12/16 09:56:08;;;;;;;8.35;3.47;;;;;;;;;;5004210;28;20066;-58
2020/12/16 09:58:41;;;;;;;10.23;4.20;;;;;;;;;;5004185;28;20487;-61
2020/12/16 10:01:07;;;;;;;9.35;4.47;;;;;;;;;;5020346;28;20081;-58
2020/12/16 10:03:33;;;;;;;13.27;4.50;;;;;;;;;;5023896;28;20033;-59
2020/12/16 10:06:05;;;;;;;9.73;4.22;;;;;;;;;;5019224;28;20091;-60
2020/12/16 10:08:35;;;;;;;14.18;3.70;;;;;;;;;;5015084;28;20050;-59
2020/12/16 10:11:04;;;;;;;9.30;3.45;;;;;;;;;;5019356;28;20052;-55
2020/12/16 10:13:31;;;;;;;12.55;4.90;;;;;;;;;;5023450;28;20045;-60
2020/12/16 10:15:57;;;;;;;14.25;4.20;;;;;;;;;;5020172;28;20046;-59
2020/12/16 10:18:24;;;;;;;8.80;3.75;;;;;;;;;;5024103;28;20037;-57
2020/12/16 10:20:50;;;;;;;10.63;3.88;;;;;;;;;;5014991;28;20128;-61
2020/12/16 10:23:16;;;;;;;8.05;3.30;;;;;;;;;;5004385;28;20055;-60
2020/12/16 10:25:43;;;;;;;8.93;3.97;;;;;;;;;;4997788;28;20041;-58
2020/12/16 10:28:11;;;;;;;9.30;3.83;;;;;;;;;;5023714;28;20105;-61
2020/12/16 10:30:39;;;;;;;9.55;3.42;;;;;;;;;;5021029;28;20037;-58
2020/12/16 10:33:05;;;;;;;10.15;3.60;;;;;;;;;;5023045;28;20054;-58
2020/12/16 10:35:31;;;;;;;9.13;3.45;;;;;;;;;;5020849;28;20034;-59
2020/12/16 10:38:00;;;;;;;13.00;3.97;;;;;;;;;;5025057;28;20180;-61
2020/12/16 10:40:31;;;;;;;12.77;4.43;;;;;;;;;;5020072;28;20098;-59
2020/12/16 10:42:58;;;;;;;8.88;3.70;;;;;;;;;;5020003;28;20144;-60
2020/12/16 10:45:25;;;;;;;10.40;3.63;;;;;;;;;;5022380;28;20116;-57
2020/12/16 10:47:59;;;;;;;9.30;3.65;;;;;;;;;;5001466;28;20042;-58
2020/12/16 10:50:25;;;;;;;9.10;3.90;;;;;;;;;;5002700;28;20030;-58
2020/12/16 10:52:54;;;;;;;9.68;3.97;;;;;;;;;;5002364;28;20037;-60
2020/12/16 10:55:21;;;;;;;7.90;3.83;;;;;;;;;;5004469;28;20612;-56
2020/12/16 10:57:51;;;;;;;11.10;4.50;;;;;;;;;;4989904;28;20038;-54
2020/12/16 11:00:19;;;;;;;15.70;4.00;;;;;;;;;;4982582;28;20038;-58
2020/12/16 11:02:48;;;;;;;10.55;4.18;;;;;;;;;;5010614;28;20041;-61
2020/12/16 11:05:14;;;;;;;12.60;3.47;;;;;;;;;;5016565;28;20058;-61
2020/12/16 11:07:49;;;;;;;8.18;3.97;;;;;;;;;;4997801;28;20026;-58
2020/12/16 11:10:18;;;;;;;8.52;3.45;;;;;;;;;;5004371;28;20048;-56
2020/12/16 11:12:44;;;;;;;9.52;4.30;;;;;;;;;;5013413;28;20046;-56
2020/12/16 11:15:15;;;;;;;11.93;4.43;;;;;;;;;;5009331;28;20164;-56
2020/12/16 11:17:53;;;;;;;8.95;4.13;;;;;;;;;;5005124;28;20066;-58
2020/12/16 11:20:19;;;;;;;9.32;4.57;;;;;;;;;;5006673;28;20026;-60
2020/12/16 11:22:50;;;;;;;9.73;4.05;;;;;;;;;;4993522;28;20052;-58
2020/12/16 11:25:18;;;;;;;10.02;3.75;;;;;;;;;;4996767;28;20035;-60
2020/12/16 11:27:50;;;;;;;8.83;3.80;;;;;;;;;;5006774;28;20104;-60
2020/12/16 11:30:17;;;;;;;7.75;3.53;;;;;;;;;;5024047;28;20316;-60
2020/12/16 11:32:43;;;;;;;9.32;4.15;;;;;;;;;;5006825;28;20045;-58
2020/12/16 11:35:09;;;;;;;16.05;4.65;;;;;;;;;;5017992;28;20033;-58
2020/12/16 11:37:39;;;;;;;9.93;4.22;;;;;;;;;;5023203;28;20044;-59
2020/12/16 11:40:05;;;;;;;10.70;3.72;;;;;;;;;;5023998;28;20094;-59
2020/12/16 11:42:31;;;;;;;9.23;4.50;;;;;;;;;;5011000;28;20061;-58
2020/12/16 11:44:57;;;;;;;8.60;4.18;;;;;;;;;;5004035;28;20034;-58
2020/12/16 11:47:29;;;;;;;11.25;4.45;;;;;;;;;;5002543;28;20078;-57
2020/12/16 11:49:56;;;;;;;13.32;4.30;;;;;;;;;;4999678;28;20030;-57
2020/12/16 11:52:22;;;;;;;8.52;3.40;;;;;;;;;;5004852;28;20105;-58
2020/12/16 11:54:48;;;;;;;9.27;4.05;;;;;;;;;;5013773;28;20045;-58
2020/12/16 11:57:15;;;;;;;7.93;3.60;;;;;;;;;;5025796;28;20074;-59
2020/12/16 11:59:41;;;;;;;7.97;3.85;;;;;;;;;;5021983;28;20037;-58
2020/12/16 12:02:07;;;;;;;10.68;4.20;;;;;;;;;;5013481;28;20049;-59
2020/12/16 12:04:34;;;;;;;8.43;3.85;;;;;;;;;;5002487;28;20046;-59
2020/12/16 12:07:03;;;;;;;12.45;4.03;;;;;;;;;;5005148;28;20042;-57
2020/12/16 12:09:29;;;;;;;9.52;4.15;;;;;;;;;;5003429;28;20096;-60
2020/12/16 12:11:55;;;;;;;10.18;4.85;;;;;;;;;;4997213;28;20054;-60
2020/12/16 12:14:21;;;;;;;10.02;4.55;;;;;;;;;;5003121;28;20054;-60
2020/12/16 12:16:48;;;;;;;7.95;4.00;;;;;;;;;;5025673;28;20052;-59
2020/12/16 12:19:14;;;;;;;10.50;4.25;;;;;;;;;;5016625;28;20044;-61
2020/12/16 12:21:41;;;;;;;8.93;3.80;;;;;;;;;;5025638;28;20037;-58
2020/12/16 12:24:07;;;;;;;9.07;4.18;;;;;;;;;;5024866;28;20509;-57
2020/12/16 12:26:33;;;;;;;12.20;4.78;;;;;;;;;;5021934;28;20046;-59
2020/12/16 12:29:05;;;;;;;8.52;4.28;;;;;;;;;;5026347;28;20045;-61
2020/12/16 12:31:31;;;;;;;9.32;3.85;;;;;;;;;;5022890;28;20045;-59
2020/12/16 12:33:57;;;;;;;9.02;4.38;;;;;;;;;;5026499;28;20060;-58
2020/12/16 12:36:23;;;;;;;9.23;4.35;;;;;;;;;;5020408;28;20049;-58
2020/12/16 12:38:59;;;;;;;12.48;3.65;;;;;;;;;;5024830;28;20400;-59
2020/12/16 12:41:25;;;;;;;8.23;3.67;;;;;;;;;;5018005;28;20034;-58
2020/12/16 12:43:51;;;;;;;8.43;3.88;;;;;;;;;;5006844;28;20058;-58
2020/12/16 12:46:17;;;;;;;10.40;4.05;;;;;;;;;;5002571;28;20116;-59
2020/12/16 12:48:50;;;;;;;10.73;4.53;;;;;;;;;;5005145;28;20134;-58
2020/12/16 12:51:16;;;;;;;8.82;3.70;;;;;;;;;;5001425;28;20762;-58
2020/12/16 12:53:42;;;;;;;13.57;5.03;;;;;;;;;;5007354;28;20053;-61
2020/12/16 12:56:10;;;;;;;9.35;4.38;;;;;;;;;;5002530;28;20082;-61
2020/12/16 12:58:36;;;;;;;11.82;4.18;;;;;;;;;;5005701;28;20046;-59
2020/12/16 13:01:03;;;;;;;9.27;4.03;;;;;;;;;;5000841;28;20135;-56
2020/12/16 13:03:29;;;;;;;11.25;4.07;;;;;;;;;;5020882;28;20037;-58
2020/12/16 13:05:55;;;;;;;9.05;4.70;;;;;;;;;;5020523;28;20062;-56
2020/12/16 13:08:25;;;;;;;11.00;4.20;;;;;;;;;;5019135;28;20051;-58
2020/12/16 13:10:51;;;;;;;10.48;4.18;;;;;;;;;;5024045;28;20066;-59
2020/12/16 13:13:30;;;;;;;9.00;3.63;;;;;;;;;;5011187;28;20038;-60
2020/12/16 13:15:56;;;;;;;10.93;3.92;;;;;;;;;;5024624;28;20111;-59
2020/12/16 13:18:25;;;;;;;8.63;3.97;;;;;;;;;;5022031;28;20041;-57
2020/12/16 13:20:54;;;;;;;11.10;3.67;;;;;;;;;;5024901;28;20141;-57
2020/12/16 13:23:20;;;;;;;9.90;4.30;;;;;;;;;;5009187;28;20042;-58
2020/12/16 13:25:46;;;;;;;11.95;4.63;;;;;;;;;;5007550;28;20053;-60
2020/12/16 13:28:16;;;;;;;8.95;4.07;;;;;;;;;;5002573;28;20034;-59
2020/12/16 13:30:43;;;;;;;8.18;3.55;;;;;;;;;;5005470;28;20042;-60
2020/12/16 13:33:09;;;;;;;9.02;4.00;;;;;;;;;;5000669;28;20030;-60
2020/12/16 13:35:35;;;;;;;11.45;4.50;;;;;;;;;;5004526;28;20068;-58
2020/12/16 13:38:01;;;;;;;10.98;4.97;;;;;;;;;;5003715;28;20042;-57
2020/12/16 13:40:27;;;;;;;12.38;4.43;;;;;;;;;;5005363;28;20042;-58
2020/12/16 13:42:53;;;;;;;12.82;5.00;;;;;;;;;;5014331;28;20069;-60
2020/12/16 13:45:19;;;;;;;8.63;4.15;;;;;;;;;;5006226;28;20031;-58
2020/12/16 13:47:54;;;;;;;9.75;4.22;;;;;;;;;;5002019;28;20116;-62
2020/12/16 13:50:20;;;;;;;10.43;4.35;;;;;;;;;;5025507;28;20112;-59
2020/12/16 13:52:47;;;;;;;9.50;4.28;;;;;;;;;;5025962;28;20048;-58
2020/12/16 13:55:15;;;;;;;9.23;3.90;;;;;;;;;;5021888;28;20046;-59
2020/12/16 13:57:46;;;;;;;8.80;3.95;;;;;;;;;;5024432;28;20038;-58
2020/12/16 14:00:12;;;;;;;8.90;3.60;;;;;;;;;;5007087;28;20129;-58
2020/12/16 14:02:38;;;;;;;7.55;3.80;;;;;;;;;;5003787;28;20097;-60
2020/12/16 14:05:08;;;;;;;12.35;4.95;;;;;;;;;;5000402;28;20034;-58
2020/12/16 14:07:39;;;;;;;12.27;4.18;;;;;;;;;;5003554;28;20041;-58
2020/12/16 14:10:08;;;;;;;9.13;4.22;;;;;;;;;;5002241;28;20050;-58
2020/12/16 14:12:35;;;;;;;11.18;4.38;;;;;;;;;;5004799;28;20034;-61
2020/12/16 14:15:01;;;;;;;11.00;3.95;;;;;;;;;;4994658;28;20040;-60
2020/12/16 14:17:28;;;;;;;13.07;4.70;;;;;;;;;;5006911;28;20026;-58
2020/12/16 14:19:54;;;;;;;9.73;4.30;;;;;;;;;;5020817;28;20098;-57
2020/12/16 14:22:21;;;;;;;13.13;5.25;;;;;;;;;;5022994;28;20050;-61
2020/12/16 14:24:47;;;;;;;16.27;5.25;;;;;;;;;;5016122;28;20030;-55
2020/12/16 14:27:29;;;;;;;11.73;4.63;;;;;;;;;;4995517;28;20046;-60
2020/12/16 14:29:55;;;;;;;9.73;4.47;;;;;;;;;;5001790;28;20030;-58
2020/12/16 14:32:23;;;;;;;10.02;5.45;;;;;;;;;;5004360;28;20030;-58
2020/12/16 14:34:49;;;;;;;10.45;4.53;;;;;;;;;;5004223;28;20062;-58
2020/12/16 14:37:16;;;;;;;12.85;5.30;;;;;;;;;;5023548;28;20038;-59
2020/12/16 14:39:43;;;;;;;13.13;5.35;;;;;;;;;;5022325;28;20033;-58